createdAt,value
2023-01-11T00:01:44.617Z,5.32
2023-01-11T00:03:48.775Z,5.35
2023-01-11T00:05:51.568Z,5.41
2023-01-11T00:07:54.411Z,5.40
2023-01-11T00:09:57.142Z,5.49
2023-01-11T00:11:59.884Z,5.44
2023-01-11T00:14:02.626Z,5.36
2023-01-11T00:16:08.728Z,5.47
2023-01-11T00:18:12.143Z,5.52
2023-01-11T00:20:17.704Z,5.17
2023-01-11T00:22:20.624Z,5.55
2023-01-11T00:24:23.569Z,5.53
2023-01-11T00:26:26.340Z,5.60
2023-01-11T00:28:29.144Z,5.61
2023-01-11T00:30:32.192Z,5.64
2023-01-11T00:32:34.932Z,5.62
2023-01-11T00:34:37.896Z,5.36
2023-01-11T00:36:42.077Z,5.65
2023-01-11T00:38:46.742Z,5.64
2023-01-11T00:40:49.551Z,5.68
2023-01-11T00:43:09.867Z,5.66
2023-01-11T00:45:30.206Z,5.68
2023-01-11T00:47:50.316Z,5.62
2023-01-11T00:49:53.088Z,5.62
2023-01-11T00:51:57.308Z,5.62
2023-01-11T00:54:00.078Z,5.54
2023-01-11T00:56:02.867Z,5.57
2023-01-11T00:58:05.866Z,5.38
2023-01-11T01:00:09.910Z,5.56
2023-01-11T01:02:13.936Z,1.97
2023-01-11T01:04:16.694Z,5.54
2023-01-11T01:06:19.485Z,5.68
2023-01-11T01:08:23.598Z,5.62
2023-01-11T01:10:26.417Z,5.65
2023-01-11T01:12:46.566Z,5.68
2023-01-11T01:14:49.332Z,5.68
2023-01-11T01:16:52.327Z,5.64
2023-01-11T01:18:57.185Z,5.46
2023-01-11T01:20:59.957Z,5.60
2023-01-11T01:23:02.788Z,5.35
2023-01-11T01:25:07.361Z,5.52
2023-01-11T01:27:11.127Z,5.55
2023-01-11T01:29:14.879Z,5.61
2023-01-11T01:31:18.330Z,5.55
2023-01-11T01:33:22.460Z,5.65
2023-01-11T01:35:25.232Z,5.65
2023-01-11T01:37:28.361Z,5.77
2023-01-11T01:39:31.171Z,5.70
2023-01-11T01:41:36.124Z,5.78
2023-01-11T01:43:51.293Z,4.77
2023-01-11T01:45:56.067Z,5.80
2023-01-11T01:48:01.619Z,5.93
2023-01-11T01:50:09.300Z,5.99
2023-01-11T01:52:12.891Z,5.85
2023-01-11T01:54:19.713Z,6.02
2023-01-11T01:56:29.384Z,5.92
2023-01-11T01:58:41.213Z,5.45
2023-01-11T02:00:46.112Z,6.00
2023-01-11T02:02:49.131Z,6.10
2023-01-11T02:04:54.733Z,5.97
2023-01-11T02:07:02.336Z,6.11
2023-01-11T02:09:12.913Z,6.12
2023-01-11T02:11:30.773Z,6.17
2023-01-11T02:13:45.981Z,6.21
2023-01-11T02:16:07.399Z,6.23
2023-01-11T02:18:12.573Z,5.96
2023-01-11T02:20:30.942Z,6.21
2023-01-11T02:23:07.082Z,6.30
2023-01-11T02:25:45.632Z,6.28
2023-01-11T02:28:05.747Z,6.07
2023-01-11T02:30:17.851Z,6.17
2023-01-11T02:32:28.513Z,6.15
2023-01-11T02:34:41.832Z,6.09
2023-01-11T02:36:56.207Z,6.21
2023-01-11T02:39:05.061Z,6.25
2023-01-11T02:41:19.311Z,6.10
2023-01-11T02:43:47.884Z,6.21
2023-01-11T02:45:59.082Z,6.11
2023-01-11T02:48:04.637Z,6.10
2023-01-11T02:50:18.158Z,6.13
2023-01-11T02:52:28.941Z,6.09
2023-01-11T02:54:34.415Z,6.16
2023-01-11T02:56:41.991Z,6.28
2023-01-11T02:58:48.815Z,6.23
2023-01-11T03:00:55.581Z,6.25
2023-01-11T03:03:14.126Z,6.28
2023-01-11T03:05:16.902Z,6.24
2023-01-11T03:07:36.118Z,6.33
2023-01-11T03:09:51.959Z,6.19
2023-01-11T03:12:28.778Z,6.36
2023-01-11T03:14:45.112Z,6.40
2023-01-11T03:16:52.993Z,6.31
2023-01-11T03:19:10.947Z,6.40
2023-01-11T03:21:25.129Z,6.06
2023-01-11T03:23:35.043Z,6.19
2023-01-11T03:25:48.807Z,6.50
2023-01-11T03:27:57.441Z,6.45
2023-01-11T03:30:07.181Z,6.60
2023-01-11T03:32:19.816Z,6.56
2023-01-11T03:34:32.780Z,6.55
2023-01-11T03:36:40.589Z,6.54
2023-01-11T03:38:49.559Z,6.60
2023-01-11T03:40:56.950Z,6.43
2023-01-11T03:43:13.736Z,6.49
2023-01-11T03:45:17.933Z,6.61
2023-01-11T03:47:25.028Z,6.60
2023-01-11T03:49:32.021Z,6.71
2023-01-11T03:51:41.535Z,6.57
2023-01-11T03:53:47.908Z,6.65
2023-01-11T03:55:54.730Z,6.09
2023-01-11T03:57:59.248Z,6.64
2023-01-11T04:00:02.236Z,6.57
2023-01-11T04:02:16.405Z,6.58
2023-01-11T04:04:19.190Z,6.65
2023-01-11T04:06:23.183Z,6.72
2023-01-11T04:08:25.973Z,6.70
2023-01-11T04:10:28.764Z,6.66
2023-01-11T04:12:31.601Z,6.69
2023-01-11T04:14:34.521Z,6.51
2023-01-11T04:16:37.304Z,6.69
2023-01-11T04:18:41.721Z,6.60
2023-01-11T04:20:44.475Z,6.55
2023-01-11T04:22:47.191Z,6.30
2023-01-11T04:24:50.019Z,6.54
2023-01-11T04:26:53.037Z,6.52
2023-01-11T04:28:55.773Z,6.55
2023-01-11T04:30:58.519Z,6.40
2023-01-11T04:33:01.253Z,6.58
2023-01-11T04:35:06.206Z,6.62
2023-01-11T04:37:09.235Z,6.59
2023-01-11T04:39:11.993Z,6.53
2023-01-11T04:41:32.478Z,6.50
2023-01-11T04:43:35.395Z,6.54
2023-01-11T04:45:38.191Z,6.56
2023-01-11T04:47:40.954Z,6.54
2023-01-11T04:49:43.984Z,6.59
2023-01-11T04:51:48.051Z,6.55
2023-01-11T04:53:50.807Z,6.59
2023-01-11T04:55:53.611Z,6.57
2023-01-11T04:57:56.357Z,6.57
2023-01-11T04:59:59.085Z,6.60
2023-01-11T05:02:01.799Z,6.51
2023-01-11T05:04:04.656Z,6.71
2023-01-11T05:06:07.959Z,6.73
2023-01-11T05:08:11.995Z,6.72
2023-01-11T05:10:14.718Z,6.73
2023-01-11T05:12:17.546Z,6.48
2023-01-11T05:14:20.318Z,6.79
2023-01-11T05:16:25.144Z,6.74
2023-01-11T05:18:27.889Z,6.82
2023-01-11T05:20:30.640Z,6.85
2023-01-11T05:22:33.417Z,6.78
2023-01-11T05:24:37.747Z,6.88
2023-01-11T05:26:42.732Z,7.01
2023-01-11T05:28:45.621Z,7.04
2023-01-11T05:30:52.276Z,6.75
2023-01-11T05:32:56.117Z,7.00
2023-01-11T05:34:58.822Z,7.01
2023-01-11T05:37:01.513Z,7.00
2023-01-11T05:39:05.902Z,7.06
2023-01-11T05:41:11.358Z,7.05
2023-01-11T05:43:14.013Z,7.06
2023-01-11T05:45:32.880Z,7.08
2023-01-11T05:47:35.637Z,7.16
2023-01-11T05:49:38.343Z,7.14
2023-01-11T05:51:41.952Z,7.12
2023-01-11T05:53:44.876Z,7.13
2023-01-11T05:55:54.805Z,7.15
2023-01-11T05:57:58.813Z,7.14
2023-01-11T06:00:01.801Z,7.15
2023-01-11T06:02:09.115Z,7.10
2023-01-11T06:04:11.904Z,7.06
2023-01-11T06:06:15.743Z,7.08
2023-01-11T06:08:18.804Z,7.10
2023-01-11T06:10:21.506Z,7.13
2023-01-11T06:12:24.210Z,7.13
2023-01-11T06:14:28.338Z,7.13
2023-01-11T06:16:31.080Z,7.13
2023-01-11T06:18:35.882Z,7.09
2023-01-11T06:20:38.708Z,6.96
2023-01-11T06:22:41.438Z,7.20
2023-01-11T06:24:44.184Z,7.16
2023-01-11T06:26:46.880Z,7.17
2023-01-11T06:28:49.985Z,7.17
2023-01-11T06:30:54.990Z,7.23
2023-01-11T06:33:05.265Z,7.26
2023-01-11T06:35:08.552Z,7.32
2023-01-11T06:37:11.362Z,7.31
2023-01-11T06:39:14.071Z,7.32
2023-01-11T06:41:16.874Z,7.30
2023-01-11T06:43:19.580Z,7.36
2023-01-11T06:45:22.500Z,7.18
2023-01-11T06:47:26.615Z,7.30
2023-01-11T06:49:29.403Z,7.30
2023-01-11T06:51:32.105Z,7.29
2023-01-11T06:53:34.829Z,7.26
2023-01-11T06:55:37.556Z,7.27
2023-01-11T06:57:40.252Z,7.23
2023-01-11T06:59:43.338Z,7.23
2023-01-11T07:01:46.314Z,7.22
2023-01-11T07:03:50.368Z,7.20
2023-01-11T07:05:56.751Z,7.16
2023-01-11T07:07:59.846Z,7.24
2023-01-11T07:10:02.619Z,7.22
2023-01-11T07:12:05.866Z,7.20
2023-01-11T07:14:08.641Z,7.26
2023-01-11T07:16:11.388Z,7.31
2023-01-11T07:18:14.311Z,7.32
2023-01-11T07:20:18.740Z,6.88
2023-01-11T07:22:22.425Z,7.38
2023-01-11T07:24:25.608Z,7.39
2023-01-11T07:26:29.723Z,7.37
2023-01-11T07:28:32.453Z,7.30
2023-01-11T07:30:51.708Z,7.26
2023-01-11T07:33:00.132Z,7.41
2023-01-11T07:35:03.000Z,7.41
2023-01-11T07:37:09.516Z,7.32
2023-01-11T07:39:42.753Z,6.90
2023-01-11T07:42:04.251Z,7.38
2023-01-11T07:44:06.992Z,7.25
2023-01-11T07:46:09.792Z,7.43
2023-01-11T07:48:13.269Z,7.40
2023-01-11T07:50:16.742Z,7.46
2023-01-11T07:52:20.916Z,7.47
2023-01-11T07:54:24.682Z,7.50
2023-01-11T07:56:27.426Z,7.55
2023-01-11T07:58:30.140Z,7.55
2023-01-11T08:00:33.217Z,7.58
2023-01-11T08:02:35.998Z,7.18
2023-01-11T08:04:38.780Z,7.59
2023-01-11T08:06:42.148Z,7.60
2023-01-11T08:08:46.246Z,7.63
2023-01-11T08:11:09.008Z,7.68
2023-01-11T08:13:30.810Z,7.73
2023-01-11T08:15:34.592Z,7.54
2023-01-11T08:17:37.682Z,7.70
2023-01-11T08:19:40.653Z,7.58
2023-01-11T08:21:44.456Z,7.76
2023-01-11T08:23:48.565Z,7.78
2023-01-11T08:25:51.294Z,7.84
2023-01-11T08:27:54.006Z,7.88
2023-01-11T08:29:56.710Z,7.90
2023-01-11T08:32:00.632Z,7.91
2023-01-11T08:34:03.361Z,7.97
2023-01-11T08:36:06.743Z,8.05
2023-01-11T08:38:09.466Z,8.03
2023-01-11T08:40:14.822Z,8.03
2023-01-11T08:42:17.803Z,8.03
2023-01-11T08:44:33.391Z,8.12
2023-01-11T08:46:38.099Z,8.17
2023-01-11T08:48:40.910Z,8.16
2023-01-11T08:50:44.902Z,8.16
2023-01-11T08:52:47.711Z,8.25
2023-01-11T08:54:50.678Z,8.23
2023-01-11T08:56:56.037Z,8.25
2023-01-11T08:58:58.768Z,8.30
2023-01-11T09:01:03.800Z,7.99
2023-01-11T09:03:06.873Z,8.39
2023-01-11T09:05:10.703Z,8.45
2023-01-11T09:07:13.444Z,8.45
2023-01-11T09:09:16.296Z,8.07
2023-01-11T09:11:36.711Z,8.04
2023-01-11T09:13:40.789Z,8.59
2023-01-11T09:15:43.516Z,8.68
2023-01-11T09:17:47.349Z,8.64
2023-01-11T09:19:50.387Z,8.70
2023-01-11T09:21:56.058Z,8.77
2023-01-11T09:23:58.792Z,8.75
2023-01-11T09:26:01.495Z,8.50
2023-01-11T09:28:04.211Z,8.81
2023-01-11T09:30:10.177Z,8.82
2023-01-11T09:32:13.136Z,8.59
2023-01-11T09:34:16.026Z,8.87
2023-01-11T09:36:21.753Z,8.89
2023-01-11T09:38:28.438Z,8.90
2023-01-11T09:40:42.322Z,8.94
2023-01-11T09:42:47.173Z,8.92
2023-01-11T09:44:54.369Z,8.99
2023-01-11T09:47:13.667Z,8.92
2023-01-11T09:49:20.229Z,8.93
2023-01-11T09:51:30.499Z,8.96
2023-01-11T09:53:38.113Z,8.94
2023-01-11T09:55:43.829Z,8.97
2023-01-11T09:57:56.673Z,9.02
2023-01-11T10:00:09.927Z,9.03
2023-01-11T10:02:30.907Z,9.11
2023-01-11T10:04:51.947Z,9.11
2023-01-11T10:07:15.548Z,8.83
2023-01-11T10:18:28.982Z,9.17
2023-01-11T10:18:30.103Z,9.12
2023-01-11T10:19:48.041Z,9.13
2023-01-11T10:21:55.659Z,9.04
2023-01-11T10:24:03.132Z,8.93
2023-01-11T10:26:13.651Z,9.12
2023-01-11T10:28:26.839Z,9.15
2023-01-11T10:30:41.805Z,9.13
2023-01-11T10:32:58.084Z,9.06
2023-01-11T10:35:24.435Z,9.02
2023-01-11T10:37:54.479Z,9.09
2023-01-11T10:40:17.368Z,9.12
2023-01-11T10:42:23.033Z,9.15
2023-01-11T10:44:32.745Z,9.11
2023-01-11T10:46:40.497Z,9.12
2023-01-11T10:48:44.462Z,9.10
2023-01-11T10:50:55.501Z,9.15
2023-01-11T10:53:06.308Z,9.12
2023-01-11T10:55:14.085Z,9.14
2023-01-11T10:57:22.961Z,9.09
2023-01-11T10:59:43.697Z,9.15
2023-01-11T11:01:54.995Z,9.18
2023-01-11T11:04:11.557Z,9.21
2023-01-11T11:06:25.036Z,9.16
2023-01-11T11:08:32.055Z,9.12
2023-01-11T11:10:43.262Z,9.31
2023-01-11T11:12:55.593Z,9.40
2023-01-11T11:15:04.909Z,9.49
2023-01-11T11:17:18.259Z,9.51
2023-01-11T11:19:26.072Z,9.59
2023-01-11T11:21:34.382Z,9.64
2023-01-11T11:23:37.970Z,9.64
2023-01-11T11:25:43.538Z,9.64
2023-01-11T11:27:51.662Z,9.71
2023-01-11T11:29:56.899Z,9.74
2023-01-11T11:32:02.005Z,9.73
2023-01-11T11:34:06.948Z,9.72
2023-01-11T11:36:11.743Z,9.81
2023-01-11T11:38:24.620Z,9.80
2023-01-11T11:40:33.605Z,9.75
2023-01-11T11:42:36.350Z,9.74
2023-01-11T11:44:39.077Z,9.71
2023-01-11T11:46:42.087Z,9.75
2023-01-11T11:48:45.368Z,9.82
2023-01-11T11:50:49.341Z,9.84
2023-01-11T11:52:54.630Z,9.71
2023-01-11T11:54:59.634Z,9.87
2023-01-11T11:57:15.474Z,9.84
2023-01-11T11:59:22.692Z,9.81
2023-01-11T12:01:29.465Z,9.73
2023-01-11T12:03:33.714Z,9.69
2023-01-11T12:05:36.604Z,9.70
2023-01-11T12:07:54.629Z,9.65
2023-01-11T12:10:03.150Z,9.72
2023-01-11T12:12:06.734Z,9.54
2023-01-11T12:14:18.888Z,9.74
2023-01-11T12:16:23.562Z,9.81
2023-01-11T12:18:28.785Z,9.89
2023-01-11T12:20:35.274Z,9.95
2023-01-11T12:22:38.048Z,9.98
2023-01-11T12:24:40.817Z,9.94
2023-01-11T12:26:59.290Z,9.84
2023-01-11T12:29:29.490Z,9.76
2023-01-11T12:31:43.256Z,9.77
2023-01-11T12:33:53.969Z,9.66
2023-01-11T12:36:03.477Z,9.71
2023-01-11T12:38:22.677Z,9.58
2023-01-11T12:40:36.009Z,9.66
2023-01-11T12:42:51.619Z,9.50
2023-01-11T12:45:04.487Z,9.68
2023-01-11T12:47:25.733Z,9.68
2023-01-11T12:49:41.264Z,9.62
2023-01-11T12:52:04.631Z,9.62
2023-01-11T12:54:25.514Z,9.59
2023-01-11T12:56:42.565Z,9.64
2023-01-11T12:58:52.637Z,9.68
2023-01-11T13:01:25.235Z,9.65
2023-01-11T13:03:50.920Z,9.65
2023-01-11T13:06:02.790Z,9.61
2023-01-11T13:08:14.716Z,9.61
2023-01-11T13:10:34.129Z,9.53
2023-01-11T13:12:45.290Z,9.55
2023-01-11T13:17:27.407Z,9.61
2023-01-11T13:19:37.492Z,9.66
2023-01-11T13:21:44.719Z,9.74
2023-01-11T13:23:51.165Z,9.73
2023-01-11T13:25:54.968Z,9.71
2023-01-11T13:28:01.480Z,9.91
2023-01-11T13:30:05.069Z,9.56
2023-01-11T13:32:14.479Z,9.48
2023-01-11T13:34:23.554Z,9.53
2023-01-11T13:36:31.325Z,9.29
2023-01-11T13:38:41.963Z,9.20
2023-01-11T13:40:49.381Z,9.48
2023-01-11T13:42:55.651Z,9.32
2023-01-11T13:45:03.728Z,9.09
2023-01-11T13:47:12.996Z,9.25
2023-01-11T13:49:38.980Z,9.37
2023-01-11T13:51:48.807Z,9.15
2023-01-11T13:53:59.223Z,9.17
2023-01-11T13:56:08.552Z,9.17
2023-01-11T13:58:17.337Z,9.10
2023-01-11T14:00:24.478Z,9.18
2023-01-11T14:02:38.347Z,9.09
2023-01-11T14:04:48.565Z,8.96
2023-01-11T14:07:26.249Z,9.39
2023-01-11T14:09:45.658Z,9.08
2023-01-11T14:11:58.857Z,8.97
2023-01-11T14:14:22.180Z,8.87
2023-01-11T14:16:35.732Z,8.81
2023-01-11T14:18:47.567Z,8.73
2023-01-11T14:21:00.826Z,8.90
2023-01-11T14:23:12.274Z,8.85
2023-01-11T14:25:19.938Z,8.76
2023-01-11T14:27:48.649Z,8.66
2023-01-11T14:30:17.613Z,8.68
2023-01-11T14:32:46.669Z,8.57
2023-01-11T14:35:18.929Z,8.54
2023-01-11T14:37:55.667Z,8.56
2023-01-11T14:40:30.318Z,8.43
2023-01-11T14:42:53.650Z,8.36
2023-01-11T14:45:20.586Z,8.38
2023-01-11T14:47:39.859Z,8.57
2023-01-11T14:50:12.241Z,8.39
2023-01-11T14:52:34.511Z,8.23
2023-01-11T14:54:45.255Z,8.25
2023-01-11T14:56:53.260Z,8.19
2023-01-11T14:59:03.207Z,8.12
2023-01-11T15:01:11.721Z,8.07
2023-01-11T15:03:35.937Z,8.00
2023-01-11T15:05:45.811Z,8.19
2023-01-11T15:07:51.461Z,8.10
2023-01-11T15:09:55.006Z,8.04
2023-01-11T15:12:12.764Z,8.28
2023-01-11T15:14:34.124Z,8.06
2023-01-11T15:16:56.927Z,8.06
2023-01-11T15:19:02.910Z,7.66
2023-01-11T15:21:07.619Z,7.87
2023-01-11T15:23:18.197Z,7.85
2023-01-11T15:25:23.744Z,7.83
2023-01-11T15:27:33.508Z,7.74
2023-01-11T15:29:41.772Z,7.64
2023-01-11T15:32:22.178Z,7.55
2023-01-11T15:34:27.375Z,7.72
2023-01-11T15:36:55.481Z,7.59
2023-01-11T15:39:03.167Z,7.56
2023-01-11T15:41:29.491Z,7.51
2023-01-11T15:43:58.153Z,7.65
2023-01-11T15:46:45.551Z,7.67
2023-01-11T15:49:26.100Z,7.72
2023-01-11T15:51:54.543Z,7.63
2023-01-11T15:54:31.123Z,7.65
2023-01-11T15:57:13.541Z,7.75
2023-01-11T15:59:56.714Z,7.75
2023-01-11T16:02:47.265Z,7.74
2023-01-11T16:04:54.693Z,7.82
2023-01-11T16:07:04.639Z,7.91
2023-01-11T16:09:23.107Z,7.35
2023-01-11T16:11:34.113Z,7.60
2023-01-11T16:13:57.466Z,7.34
2023-01-11T16:16:19.508Z,7.31
2023-01-11T16:18:26.405Z,7.54
2023-01-11T16:20:29.551Z,7.60
2023-01-11T16:22:32.308Z,7.58
2023-01-11T16:24:42.348Z,7.48
2023-01-11T16:26:50.364Z,7.47
2023-01-11T16:28:56.837Z,7.51
2023-01-11T16:31:01.954Z,7.53
2023-01-11T16:33:22.917Z,7.26
2023-01-11T16:35:26.965Z,7.32
2023-01-11T16:37:34.893Z,7.45
2023-01-11T16:39:37.751Z,7.54
2023-01-11T16:41:47.179Z,7.54
2023-01-11T16:43:54.926Z,7.45
2023-01-11T16:45:57.720Z,7.04
2023-01-11T16:48:04.499Z,7.38
2023-01-11T16:50:22.280Z,7.47
2023-01-11T16:52:39.064Z,7.19
2023-01-11T16:54:42.003Z,7.22
2023-01-11T16:56:49.300Z,7.01
2023-01-11T16:59:06.873Z,6.87
2023-01-11T17:01:12.268Z,6.97
2023-01-11T17:03:21.705Z,6.93
2023-01-11T17:05:25.963Z,6.86
2023-01-11T17:07:30.449Z,6.91
2023-01-11T17:09:33.267Z,6.98
2023-01-11T17:11:41.773Z,6.86
2023-01-11T17:14:03.186Z,6.57
2023-01-11T17:16:10.630Z,6.76
2023-01-11T17:18:13.416Z,6.78
2023-01-11T17:20:21.355Z,6.69
2023-01-11T17:22:28.669Z,6.80
2023-01-11T17:24:35.004Z,6.79
2023-01-11T17:26:44.909Z,6.21
2023-01-11T17:28:49.797Z,6.56
2023-01-11T17:30:54.492Z,6.91
2023-01-11T17:32:59.554Z,6.86
2023-01-11T17:35:05.247Z,6.71
2023-01-11T17:37:13.407Z,6.76
2023-01-11T17:39:24.910Z,6.68
2023-01-11T17:41:47.078Z,6.61
2023-01-11T17:44:07.306Z,6.61
2023-01-11T17:46:17.733Z,6.50
2023-01-11T17:48:20.881Z,6.52
2023-01-11T17:50:29.557Z,6.56
2023-01-11T17:52:43.729Z,6.52
2023-01-11T17:55:02.473Z,6.58
2023-01-11T17:57:06.022Z,6.44
2023-01-11T17:59:21.815Z,6.43
2023-01-11T18:01:25.037Z,6.46
2023-01-11T18:03:27.971Z,6.31
2023-01-11T18:05:30.803Z,6.30
2023-01-11T18:07:33.576Z,6.30
2023-01-11T18:09:41.626Z,6.56
2023-01-11T18:11:46.020Z,6.39
2023-01-11T18:13:52.192Z,6.27
2023-01-11T18:15:55.200Z,5.72
2023-01-11T18:17:58.271Z,5.91
2023-01-11T18:20:01.868Z,6.24
2023-01-11T18:22:05.477Z,6.36
2023-01-11T18:24:24.974Z,6.51
2023-01-11T18:26:31.841Z,6.57
2023-01-11T18:28:38.954Z,6.53
2023-01-11T18:30:45.606Z,6.43
2023-01-11T18:32:48.333Z,6.39
2023-01-11T18:34:54.444Z,6.36
2023-01-11T18:36:58.799Z,6.33
2023-01-11T18:39:01.934Z,6.15
2023-01-11T18:41:22.782Z,6.00
2023-01-11T18:43:27.518Z,6.20
2023-01-11T18:45:31.659Z,6.21
2023-01-11T18:47:34.419Z,6.11
2023-01-11T18:49:37.085Z,6.16
2023-01-11T18:51:40.386Z,6.22
2023-01-11T18:53:43.175Z,6.31
2023-01-11T18:55:47.013Z,6.39
2023-01-11T18:57:49.756Z,6.37
2023-01-11T18:59:53.469Z,6.38
2023-01-11T19:02:16.203Z,6.24
2023-01-11T19:04:19.593Z,6.28
2023-01-11T19:06:22.794Z,6.18
2023-01-11T19:08:25.594Z,6.09
2023-01-11T19:10:28.621Z,6.12
2023-01-11T19:12:31.513Z,6.02
2023-01-11T19:14:34.493Z,6.07
2023-01-11T19:16:37.490Z,6.11
2023-01-11T19:18:41.559Z,6.15
2023-01-11T19:20:44.336Z,6.12
2023-01-11T19:22:47.138Z,5.87
2023-01-11T19:24:49.875Z,5.76
2023-01-11T19:26:52.762Z,5.82
2023-01-11T19:28:55.562Z,5.73
2023-01-11T19:30:58.531Z,5.60
2023-01-11T19:33:01.338Z,5.23
2023-01-11T19:35:06.911Z,5.10
2023-01-11T19:37:10.962Z,5.14
2023-01-11T19:39:13.710Z,5.20
2023-01-11T19:41:16.817Z,5.13
2023-01-11T19:43:19.598Z,5.20
2023-01-11T19:45:22.351Z,5.36
2023-01-11T19:47:25.217Z,5.32
2023-01-11T19:49:28.542Z,4.99
2023-01-11T19:51:32.562Z,4.76
2023-01-11T19:53:36.135Z,5.39
2023-01-11T19:55:39.270Z,5.38
2023-01-11T19:57:42.072Z,5.41
2023-01-11T19:59:44.993Z,5.33
2023-01-11T20:01:49.228Z,5.35
2023-01-11T20:03:52.001Z,5.22
2023-01-11T20:06:04.619Z,5.19
2023-01-11T20:08:08.705Z,5.21
2023-01-11T20:10:12.065Z,5.25
2023-01-11T20:12:16.127Z,5.01
2023-01-11T20:14:18.884Z,5.35
2023-01-11T20:16:24.199Z,5.46
2023-01-11T20:18:27.249Z,5.33
2023-01-11T20:20:30.037Z,5.31
2023-01-11T20:22:33.218Z,5.15
2023-01-11T20:24:37.317Z,5.18
2023-01-11T20:26:40.415Z,5.32
2023-01-11T20:28:44.131Z,5.39
2023-01-11T20:30:46.906Z,5.37
2023-01-11T20:32:49.652Z,5.31
2023-01-11T20:34:53.498Z,5.32
2023-01-11T20:36:56.274Z,4.82
2023-01-11T20:38:59.007Z,5.18
2023-01-11T20:41:08.398Z,4.76
2023-01-11T20:43:11.731Z,5.29
2023-01-11T20:45:14.523Z,5.12
2023-01-11T20:47:17.219Z,5.11
2023-01-11T20:49:20.873Z,5.16
2023-01-11T20:51:23.614Z,5.11
2023-01-11T20:53:26.360Z,5.05
2023-01-11T20:55:29.088Z,5.23
2023-01-11T20:57:33.421Z,5.32
2023-01-11T20:59:36.160Z,5.38
2023-01-11T21:01:38.924Z,5.38
2023-01-11T21:03:41.658Z,5.43
2023-01-11T21:05:44.327Z,5.28
2023-01-11T21:07:48.014Z,5.41
2023-01-11T21:09:50.733Z,5.39
2023-01-11T21:11:54.059Z,5.47
2023-01-11T21:13:59.446Z,5.48
2023-01-11T21:16:06.976Z,5.32
2023-01-11T21:18:09.737Z,5.19
2023-01-11T21:20:12.957Z,5.36
2023-01-11T21:22:15.700Z,5.07
2023-01-11T21:24:18.489Z,5.36
2023-01-11T21:26:21.209Z,5.33
2023-01-11T21:28:24.029Z,5.43
2023-01-11T21:30:28.073Z,5.57
2023-01-11T21:32:30.707Z,5.62
2023-01-11T21:34:33.408Z,5.66
2023-01-11T21:36:36.188Z,5.71
2023-01-11T21:38:39.682Z,5.77
2023-01-11T21:40:42.408Z,5.77
2023-01-11T21:42:45.484Z,5.82
2023-01-11T21:44:48.284Z,5.73
2023-01-11T21:46:54.708Z,5.87
2023-01-11T21:48:57.500Z,5.84
2023-01-11T21:51:00.767Z,5.79
2023-01-11T21:53:03.512Z,5.78
2023-01-11T21:55:06.989Z,5.76
2023-01-11T21:57:09.739Z,5.82
2023-01-11T21:59:12.607Z,5.79
2023-01-11T22:01:15.490Z,5.80
2023-01-11T22:03:19.640Z,5.79
2023-01-11T22:05:22.380Z,5.72
2023-01-11T22:07:26.369Z,5.17
2023-01-11T22:09:29.161Z,5.57
2023-01-11T22:11:33.159Z,5.58
2023-01-11T22:13:36.555Z,5.56
2023-01-11T22:15:39.286Z,5.59
2023-01-11T22:17:42.088Z,5.55
2023-01-11T22:19:46.184Z,5.55
2023-01-11T22:21:49.283Z,5.50
2023-01-11T22:23:54.381Z,5.50
2023-01-11T22:25:57.364Z,5.37
2023-01-11T22:28:00.120Z,5.55
2023-01-11T22:30:02.914Z,5.52
2023-01-11T22:32:06.033Z,5.55
2023-01-11T22:34:09.033Z,5.52
2023-01-11T22:36:14.156Z,5.52
2023-01-11T22:38:16.893Z,5.31
2023-01-11T22:40:19.736Z,5.53
2023-01-11T22:42:22.427Z,5.51
2023-01-11T22:44:25.115Z,5.52
2023-01-11T22:46:28.799Z,5.48
2023-01-11T22:48:31.967Z,5.47
2023-01-11T22:50:34.651Z,5.47
2023-01-11T22:52:38.702Z,5.48
2023-01-11T22:54:41.353Z,5.39
2023-01-11T22:56:44.473Z,5.41
2023-01-11T22:58:47.528Z,4.57
2023-01-11T23:00:51.547Z,5.24
2023-01-11T23:02:54.331Z,5.21
2023-01-11T23:04:57.103Z,5.35
2023-01-11T23:07:00.040Z,4.83
2023-01-11T23:09:05.046Z,5.35
2023-01-11T23:11:08.184Z,5.36
2023-01-11T23:13:29.211Z,5.39
2023-01-11T23:15:31.978Z,5.38
2023-01-11T23:17:34.642Z,5.33
2023-01-11T23:19:39.850Z,5.29
2023-01-11T23:21:43.437Z,5.13
2023-01-11T23:23:46.114Z,5.27
2023-01-11T23:25:54.930Z,5.31
2023-01-11T23:27:57.682Z,5.27
2023-01-11T23:30:00.384Z,5.26
2023-01-11T23:32:03.163Z,5.19
2023-01-11T23:34:08.402Z,4.85
2023-01-11T23:36:11.296Z,5.24
2023-01-11T23:38:13.987Z,5.22
2023-01-11T23:40:16.728Z,5.23
2023-01-11T23:42:28.966Z,5.16
2023-01-11T23:44:31.912Z,5.17
2023-01-11T23:46:52.262Z,5.13
2023-01-11T23:48:54.969Z,5.02
2023-01-11T23:51:04.358Z,5.04
2023-01-11T23:53:07.052Z,5.18
2023-01-11T23:55:10.459Z,5.22
2023-01-11T23:57:15.030Z,5.22
2023-01-11T23:59:19.101Z,5.19
